Time;durP1;ratioP1;P1;durP2;ratioP2;P2;SDS_P1;SDS_P2;PMS_P1;PMS_P2;Temp;Humidity;BMP_temperature;BMP_pressure;BME280_temperature;BME280_humidity;BME280_pressure;Samples;Min_cycle;Max_cycle;Signal;HPM_P1;HPM_P2
2022/03/11 00:01:50;;;;;;;37.28;18.85;;;;;;;;;;4762184;30;20051;-80
2022/03/11 00:04:36;;;;;;;40.75;18.95;;;;;;;;;;4768817;30;20056;-79
2022/03/11 00:07:21;;;;;;;37.15;18.70;;;;;;;;;;4775195;30;20055;-80
2022/03/11 00:10:10;;;;;;;33.97;16.92;;;;;;;;;;4775947;30;20048;-82
2022/03/11 00:12:56;;;;;;;33.95;16.60;;;;;;;;;;4775309;30;20052;-81
2022/03/11 00:15:42;;;;;;;32.92;15.20;;;;;;;;;;4770253;30;20051;-81
2022/03/11 00:18:28;;;;;;;27.90;12.52;;;;;;;;;;4775924;30;20440;-80
2022/03/11 00:21:13;;;;;;;28.80;13.90;;;;;;;;;;4766217;30;20055;-80
2022/03/11 00:23:59;;;;;;;21.15;11.07;;;;;;;;;;4778630;30;20055;-81
2022/03/11 00:26:44;;;;;;;23.58;11.90;;;;;;;;;;4778760;30;20051;-82
2022/03/11 00:29:30;;;;;;;45.55;16.77;;;;;;;;;;4778842;30;20403;-81
2022/03/11 00:32:15;;;;;;;27.58;12.65;;;;;;;;;;4783502;30;20228;-80
2022/03/11 00:35:01;;;;;;;23.50;11.52;;;;;;;;;;4778744;30;20039;-81
2022/03/11 00:37:47;;;;;;;50.35;19.42;;;;;;;;;;4778759;30;20426;-80
2022/03/11 00:40:33;;;;;;;24.25;10.82;;;;;;;;;;4778811;30;20387;-81
2022/03/11 00:43:19;;;;;;;26.00;12.05;;;;;;;;;;4778714;30;20056;-79
2022/03/11 00:46:04;;;;;;;23.48;11.18;;;;;;;;;;4778475;30;20051;-82
2022/03/11 00:48:51;;;;;;;20.20;7.95;;;;;;;;;;4773000;30;20498;-81
2022/03/11 00:51:37;;;;;;;41.83;19.58;;;;;;;;;;4775405;30;20051;-81
2022/03/11 00:54:22;;;;;;;25.73;12.30;;;;;;;;;;4773061;30;20059;-80
2022/03/11 00:57:07;;;;;;;30.55;14.00;;;;;;;;;;4760032;30;20051;-81
2022/03/11 00:59:52;;;;;;;10.13;5.90;;;;;;;;;;4797373;29;20052;-81
2022/03/11 01:02:39;;;;;;;16.35;8.68;;;;;;;;;;4783573;29;20043;-81
2022/03/11 01:05:25;;;;;;;13.40;7.18;;;;;;;;;;4765903;30;20048;-81
2022/03/11 01:08:11;;;;;;;20.45;8.45;;;;;;;;;;4778029;30;20043;-81
2022/03/11 01:10:57;;;;;;;18.00;8.23;;;;;;;;;;4778159;30;20059;-81
2022/03/11 01:13:42;;;;;;;19.70;10.35;;;;;;;;;;4765675;30;20051;-81
2022/03/11 01:16:28;;;;;;;32.63;20.27;;;;;;;;;;4765299;30;20059;-80
2022/03/11 01:19:13;;;;;;;18.17;8.00;;;;;;;;;;4777725;30;20047;-81
2022/03/11 01:21:59;;;;;;;18.80;9.90;;;;;;;;;;4772306;30;20103;-81
2022/03/11 01:24:45;;;;;;;15.00;8.77;;;;;;;;;;4774195;30;20483;-79
2022/03/11 01:27:30;;;;;;;18.60;9.63;;;;;;;;;;4778156;30;20047;-80
2022/03/11 01:30:16;;;;;;;13.05;7.72;;;;;;;;;;4776932;30;20051;-79
2022/03/11 01:33:02;;;;;;;12.02;6.30;;;;;;;;;;4772942;30;20064;-80
2022/03/11 01:35:48;;;;;;;15.40;7.70;;;;;;;;;;4772426;30;20391;-81
2022/03/11 01:38:34;;;;;;;22.05;12.35;;;;;;;;;;4772335;30;20056;-81
2022/03/11 01:41:20;;;;;;;15.45;8.40;;;;;;;;;;4772677;30;20048;-81
2022/03/11 01:44:08;;;;;;;16.83;8.20;;;;;;;;;;4772486;30;20056;-81
2022/03/11 01:46:53;;;;;;;13.80;5.70;;;;;;;;;;4772650;30;20051;-81
2022/03/11 01:49:39;;;;;;;16.25;7.80;;;;;;;;;;4772242;30;20512;-81
2022/03/11 01:52:25;;;;;;;12.30;7.07;;;;;;;;;;4772186;30;20052;-81
2022/03/11 01:55:11;;;;;;;10.77;5.65;;;;;;;;;;4772504;30;20055;-81
2022/03/11 01:57:57;;;;;;;12.02;6.47;;;;;;;;;;4772159;30;20399;-82
2022/03/11 02:00:42;;;;;;;8.52;5.35;;;;;;;;;;4772126;30;20047;-81
2022/03/11 02:03:28;;;;;;;17.13;7.22;;;;;;;;;;4772029;30;20051;-81
2022/03/11 02:06:15;;;;;;;13.18;7.03;;;;;;;;;;4771973;30;20059;-82
2022/03/11 02:09:02;;;;;;;15.35;7.53;;;;;;;;;;4771977;30;20044;-81
2022/03/11 02:11:47;;;;;;;16.42;8.80;;;;;;;;;;4771925;30;20052;-82
2022/03/11 02:14:33;;;;;;;13.07;7.53;;;;;;;;;;4775693;30;20043;-81
2022/03/11 02:17:18;;;;;;;13.95;7.20;;;;;;;;;;4772194;30;20060;-81
2022/03/11 02:20:04;;;;;;;14.57;5.47;;;;;;;;;;4771836;30;20048;-81
2022/03/11 02:22:51;;;;;;;12.23;7.10;;;;;;;;;;4772341;30;20047;-81
2022/03/11 02:25:40;;;;;;;12.35;7.00;;;;;;;;;;4777408;30;20056;-81
2022/03/11 02:28:34;;;;;;;17.02;7.88;;;;;;;;;;4773057;30;20047;-81
2022/03/11 02:31:23;;;;;;;13.43;7.55;;;;;;;;;;4771626;30;20051;-82
2022/03/11 02:34:08;;;;;;;12.82;8.05;;;;;;;;;;4771447;30;20055;-81
2022/03/11 02:36:54;;;;;;;19.85;7.53;;;;;;;;;;4771617;30;20048;-81
2022/03/11 02:39:42;;;;;;;16.17;7.55;;;;;;;;;;4771322;30;20052;-80
2022/03/11 02:42:27;;;;;;;14.70;8.32;;;;;;;;;;4771143;30;20052;-80
2022/03/11 02:45:12;;;;;;;17.00;8.63;;;;;;;;;;4771646;30;20479;-81
2022/03/11 02:47:58;;;;;;;16.23;8.90;;;;;;;;;;4771016;30;20402;-80
2022/03/11 02:50:44;;;;;;;20.45;9.10;;;;;;;;;;4771714;30;20052;-80
2022/03/11 02:53:29;;;;;;;16.25;9.27;;;;;;;;;;4753544;30;20052;-81
2022/03/11 02:56:15;;;;;;;13.38;6.85;;;;;;;;;;4753718;30;20048;-81
2022/03/11 02:59:01;;;;;;;17.70;8.13;;;;;;;;;;4753475;30;20040;-81
2022/03/11 03:01:46;;;;;;;14.98;8.43;;;;;;;;;;4753475;30;20507;-81
2022/03/11 03:04:31;;;;;;;9.63;4.65;;;;;;;;;;4761072;30;20055;-81
2022/03/11 03:07:17;;;;;;;9.70;5.75;;;;;;;;;;4754004;30;20051;-81
2022/03/11 03:10:04;;;;;;;8.35;5.50;;;;;;;;;;4753325;30;20052;-81
2022/03/11 03:12:49;;;;;;;14.13;7.93;;;;;;;;;;4757485;30;20040;-81
2022/03/11 03:15:35;;;;;;;12.48;5.32;;;;;;;;;;4777206;30;20056;-81
2022/03/11 03:18:20;;;;;;;13.80;6.40;;;;;;;;;;4754638;30;20495;-80
2022/03/11 03:21:06;;;;;;;9.50;5.82;;;;;;;;;;4753302;30;20052;-81
2022/03/11 03:23:52;;;;;;;8.80;5.43;;;;;;;;;;4753455;30;20056;-81
2022/03/11 03:26:38;;;;;;;11.90;6.35;;;;;;;;;;4753001;30;20056;-80
2022/03/11 03:29:24;;;;;;;9.02;4.75;;;;;;;;;;4752691;30;20044;-81
2022/03/11 03:32:09;;;;;;;15.15;7.82;;;;;;;;;;4753064;30;20048;-81
2022/03/11 03:34:55;;;;;;;15.13;7.85;;;;;;;;;;4753185;30;20059;-79
2022/03/11 03:37:40;;;;;;;14.90;6.68;;;;;;;;;;4758117;30;20064;-80
2022/03/11 03:40:25;;;;;;;13.07;6.10;;;;;;;;;;4752910;30;20044;-80
2022/03/11 03:43:11;;;;;;;16.05;6.78;;;;;;;;;;4757924;30;20048;-80
2022/03/11 03:45:56;;;;;;;9.57;5.93;;;;;;;;;;4753083;30;20047;-78
2022/03/11 03:48:42;;;;;;;8.48;5.55;;;;;;;;;;4753209;30;20041;-82
2022/03/11 03:51:27;;;;;;;12.63;5.60;;;;;;;;;;4756952;30;20056;-80
2022/03/11 03:54:13;;;;;;;9.35;5.13;;;;;;;;;;4778983;30;20043;-80
2022/03/11 03:57:00;;;;;;;20.73;10.95;;;;;;;;;;4775515;30;20398;-80
2022/03/11 03:59:45;;;;;;;16.73;8.35;;;;;;;;;;4774367;30;20043;-80
2022/03/11 04:02:32;;;;;;;16.48;8.65;;;;;;;;;;4774403;30;20055;-79
2022/03/11 04:05:19;;;;;;;13.30;7.95;;;;;;;;;;4774231;30;20107;-81
2022/03/11 04:08:05;;;;;;;20.13;8.43;;;;;;;;;;4774143;30;20055;-80
2022/03/11 04:10:51;;;;;;;16.80;7.95;;;;;;;;;;4774049;30;20092;-80
2022/03/11 04:13:36;;;;;;;16.95;8.55;;;;;;;;;;4780417;30;20059;-80
2022/03/11 04:16:22;;;;;;;7.05;3.97;;;;;;;;;;4773989;30;20052;-80
2022/03/11 04:19:07;;;;;;;16.60;8.55;;;;;;;;;;4773782;30;20055;-79
2022/03/11 04:21:53;;;;;;;15.57;7.70;;;;;;;;;;4778773;30;20055;-80
2022/03/11 04:24:39;;;;;;;11.15;6.38;;;;;;;;;;4773737;30;20052;-80
2022/03/11 04:27:25;;;;;;;13.07;7.10;;;;;;;;;;4773779;30;20406;-79
2022/03/11 04:30:11;;;;;;;8.25;5.40;;;;;;;;;;4772309;30;20052;-81
2022/03/11 04:32:56;;;;;;;13.20;7.72;;;;;;;;;;4773633;30;20048;-81
2022/03/11 04:35:42;;;;;;;13.13;8.63;;;;;;;;;;4773698;30;20048;-82
2022/03/11 04:38:28;;;;;;;11.25;6.38;;;;;;;;;;4773691;30;20047;-80
2022/03/11 04:41:13;;;;;;;7.82;5.43;;;;;;;;;;4773870;30;20051;-80
2022/03/11 04:43:58;;;;;;;15.55;9.48;;;;;;;;;;4777796;30;20048;-80
2022/03/11 04:46:45;;;;;;;20.08;10.27;;;;;;;;;;4773285;30;20051;-79
2022/03/11 04:49:30;;;;;;;19.50;9.93;;;;;;;;;;4773444;30;20055;-80
2022/03/11 04:52:15;;;;;;;28.52;10.68;;;;;;;;;;4773333;30;20503;-79
2022/03/11 04:55:02;;;;;;;20.92;11.27;;;;;;;;;;4773606;30;20047;-80
2022/03/11 04:57:47;;;;;;;32.75;15.82;;;;;;;;;;4773353;30;20051;-80
2022/03/11 05:00:33;;;;;;;35.38;16.45;;;;;;;;;;4759776;30;20044;-80
2022/03/11 05:03:18;;;;;;;22.85;11.50;;;;;;;;;;4773048;30;20052;-81
2022/03/11 05:06:05;;;;;;;19.63;12.02;;;;;;;;;;4773181;30;20402;-81
2022/03/11 05:08:50;;;;;;;23.73;12.10;;;;;;;;;;4773125;30;20048;-80
2022/03/11 05:11:36;;;;;;;26.80;13.85;;;;;;;;;;4773180;30;20059;-80
2022/03/11 05:14:22;;;;;;;25.77;13.25;;;;;;;;;;4772785;30;20055;-80
2022/03/11 05:17:08;;;;;;;21.58;11.80;;;;;;;;;;4778265;30;20056;-79
2022/03/11 05:19:53;;;;;;;23.70;12.25;;;;;;;;;;4776862;30;20044;-81
2022/03/11 05:22:41;;;;;;;25.15;12.43;;;;;;;;;;4773313;30;20048;-82
2022/03/11 05:25:27;;;;;;;26.23;13.90;;;;;;;;;;4774008;30;20055;-83
2022/03/11 05:28:12;;;;;;;26.20;14.05;;;;;;;;;;4795993;29;20031;-80
2022/03/11 05:30:58;;;;;;;28.35;14.20;;;;;;;;;;4778107;29;20044;-80
2022/03/11 05:33:43;;;;;;;40.13;17.90;;;;;;;;;;4778846;30;20055;-80
2022/03/11 05:36:29;;;;;;;23.38;12.93;;;;;;;;;;4772508;30;20060;-80
2022/03/11 05:39:14;;;;;;;22.55;12.93;;;;;;;;;;4772595;30;20052;-80
2022/03/11 05:42:00;;;;;;;33.88;16.55;;;;;;;;;;4772237;30;20082;-81
2022/03/11 05:44:45;;;;;;;29.35;14.63;;;;;;;;;;4777663;30;20051;-81
2022/03/11 05:47:30;;;;;;;34.75;17.17;;;;;;;;;;4772168;30;20048;-80
2022/03/11 05:50:17;;;;;;;31.38;15.18;;;;;;;;;;4772050;30;20051;-80
2022/03/11 05:53:02;;;;;;;40.10;19.20;;;;;;;;;;4771892;30;20051;-79
2022/03/11 05:55:48;;;;;;;31.13;15.88;;;;;;;;;;4777008;30;20051;-79
2022/03/11 05:58:33;;;;;;;29.48;14.38;;;;;;;;;;4758957;30;20048;-78
2022/03/11 06:01:19;;;;;;;22.00;10.82;;;;;;;;;;4772146;30;20478;-78
2022/03/11 06:04:04;;;;;;;30.75;17.33;;;;;;;;;;4772397;30;20387;-79
2022/03/11 06:07:11;;;;;;;63.58;33.25;;;;;;;;;;4773832;30;20051;-78
2022/03/11 06:09:57;;;;;;;18.15;9.73;;;;;;;;;;4764454;30;20063;-79
2022/03/11 06:12:44;;;;;;;54.72;23.02;;;;;;;;;;4775746;30;20056;-78
2022/03/11 06:15:29;;;;;;;30.77;15.90;;;;;;;;;;4775717;30;20055;-79
2022/03/11 06:18:17;;;;;;;24.55;13.02;;;;;;;;;;4771412;30;20063;-79
2022/03/11 06:21:03;;;;;;;23.55;14.35;;;;;;;;;;4772073;30;20051;-78
2022/03/11 06:23:49;;;;;;;19.58;11.40;;;;;;;;;;4771712;30;20055;-76
2022/03/11 06:26:34;;;;;;;17.80;10.60;;;;;;;;;;4771626;30;20051;-79
2022/03/11 06:29:20;;;;;;;16.58;8.82;;;;;;;;;;4771208;30;20047;-79
2022/03/11 06:32:05;;;;;;;10.57;6.78;;;;;;;;;;4771292;30;20055;-79
2022/03/11 06:34:54;;;;;;;21.30;10.52;;;;;;;;;;4771378;30;20051;-79
2022/03/11 06:37:42;;;;;;;26.38;14.60;;;;;;;;;;4771497;30;20059;-79
2022/03/11 06:40:28;;;;;;;14.35;8.43;;;;;;;;;;4776203;30;20055;-79
2022/03/11 06:43:13;;;;;;;15.10;8.43;;;;;;;;;;4771854;30;20386;-78
2022/03/11 06:45:58;;;;;;;12.00;8.00;;;;;;;;;;4771287;30;20535;-78
2022/03/11 06:48:44;;;;;;;13.20;7.20;;;;;;;;;;4771480;30;20387;-78
2022/03/11 06:51:31;;;;;;;13.82;7.32;;;;;;;;;;4770921;30;20055;-78
2022/03/11 06:54:16;;;;;;;19.83;10.02;;;;;;;;;;4771419;30;20051;-78
2022/03/11 06:57:03;;;;;;;11.02;7.60;;;;;;;;;;4771058;30;20051;-79
2022/03/11 06:59:49;;;;;;;17.27;9.13;;;;;;;;;;4770986;30;20048;-78
2022/03/11 07:02:36;;;;;;;11.90;6.30;;;;;;;;;;4771336;30;20048;-78
2022/03/11 07:05:21;;;;;;;15.35;8.75;;;;;;;;;;4770881;30;20047;-79
2022/03/11 07:08:10;;;;;;;14.32;8.35;;;;;;;;;;4778091;30;20051;-77
2022/03/11 07:10:54;;;;;;;30.00;13.32;;;;;;;;;;4763661;30;20048;-78
2022/03/11 07:13:39;;;;;;;26.45;11.07;;;;;;;;;;4771227;30;20398;-78
2022/03/11 07:16:26;;;;;;;20.35;9.85;;;;;;;;;;4771265;30;20047;-78
2022/03/11 07:19:11;;;;;;;11.40;7.35;;;;;;;;;;4771298;30;20044;-78
2022/03/11 07:22:01;;;;;;;22.40;12.02;;;;;;;;;;4771323;30;20055;-78
2022/03/11 07:24:47;;;;;;;15.65;7.40;;;;;;;;;;4770996;30;20059;-78
2022/03/11 07:27:32;;;;;;;16.48;8.73;;;;;;;;;;4770646;30;20051;-78
2022/03/11 07:30:18;;;;;;;23.50;13.40;;;;;;;;;;4769836;30;20055;-78
2022/03/11 07:33:03;;;;;;;14.90;8.50;;;;;;;;;;4771087;30;20059;-78
2022/03/11 07:35:49;;;;;;;12.43;5.78;;;;;;;;;;4770946;30;20051;-79
2022/03/11 07:38:34;;;;;;;12.52;6.55;;;;;;;;;;4770708;30;20048;-78
2022/03/11 07:41:20;;;;;;;15.02;8.27;;;;;;;;;;4772060;30;20060;-80
2022/03/11 07:44:06;;;;;;;20.13;10.32;;;;;;;;;;4794624;29;20035;-78
2022/03/11 07:46:51;;;;;;;22.52;8.32;;;;;;;;;;4771301;30;20406;-78
2022/03/11 07:49:37;;;;;;;22.98;10.80;;;;;;;;;;4770829;30;20495;-79
2022/03/11 07:52:22;;;;;;;15.98;7.50;;;;;;;;;;4770319;30;20051;-80
2022/03/11 07:55:09;;;;;;;29.38;14.43;;;;;;;;;;4771255;30;20047;-79
2022/03/11 07:57:54;;;;;;;14.90;8.48;;;;;;;;;;4771145;30;20056;-79
2022/03/11 08:00:41;;;;;;;21.25;11.63;;;;;;;;;;4770425;30;20044;-80
2022/03/11 08:03:27;;;;;;;10.98;6.78;;;;;;;;;;4770293;30;20043;-79
2022/03/11 08:06:12;;;;;;;22.20;10.15;;;;;;;;;;4770736;30;20048;-78
2022/03/11 08:08:58;;;;;;;9.70;6.22;;;;;;;;;;4770300;30;20044;-80
2022/03/11 08:11:44;;;;;;;20.88;11.93;;;;;;;;;;4776661;30;20403;-79
2022/03/11 08:14:29;;;;;;;23.77;11.60;;;;;;;;;;4776520;30;20047;-79
2022/03/11 08:17:15;;;;;;;20.42;11.82;;;;;;;;;;4770388;30;20056;-79
2022/03/11 08:20:00;;;;;;;19.27;10.45;;;;;;;;;;4770714;30;20048;-79
2022/03/11 08:22:48;;;;;;;14.90;8.38;;;;;;;;;;4771191;30;20056;-78
2022/03/11 08:25:34;;;;;;;14.45;8.05;;;;;;;;;;4770741;30;20048;-79
2022/03/11 08:28:22;;;;;;;15.07;8.75;;;;;;;;;;4770295;30;20406;-78
2022/03/11 08:31:07;;;;;;;12.88;7.80;;;;;;;;;;4770233;30;20483;-79
2022/03/11 08:33:53;;;;;;;20.77;12.35;;;;;;;;;;4776180;30;20048;-78
2022/03/11 08:36:39;;;;;;;8.38;6.07;;;;;;;;;;4770011;30;20048;-79
2022/03/11 08:39:24;;;;;;;21.30;9.57;;;;;;;;;;4770290;30;20120;-78
2022/03/11 08:42:10;;;;;;;25.52;12.10;;;;;;;;;;4773381;30;20040;-79
2022/03/11 08:44:55;;;;;;;19.38;8.20;;;;;;;;;;4784698;30;20055;-78
2022/03/11 08:47:41;;;;;;;20.92;11.52;;;;;;;;;;4773488;30;20047;-79
2022/03/11 08:50:27;;;;;;;17.02;8.77;;;;;;;;;;4773172;30;20052;-77
2022/03/11 08:53:13;;;;;;;18.27;10.43;;;;;;;;;;4772927;30;20052;-79
2022/03/11 08:56:00;;;;;;;21.08;10.02;;;;;;;;;;4779198;30;20056;-80
2022/03/11 08:58:47;;;;;;;19.63;10.15;;;;;;;;;;4779818;30;20051;-79
2022/03/11 09:01:32;;;;;;;18.50;10.63;;;;;;;;;;4778486;30;20498;-78
2022/03/11 09:04:19;;;;;;;13.60;9.05;;;;;;;;;;4773214;30;20056;-79
2022/03/11 09:07:05;;;;;;;17.23;9.75;;;;;;;;;;4773455;30;20052;-85
2022/03/11 09:09:51;;;;;;;22.55;11.75;;;;;;;;;;4778260;30;20056;-86
2022/03/11 09:13:08;;;;;;;22.80;12.15;;;;;;;;;;4784315;30;20430;-88
2022/03/11 09:15:53;;;;;;;18.98;10.75;;;;;;;;;;4774845;30;20047;-84
2022/03/11 09:18:38;;;;;;;13.68;8.18;;;;;;;;;;4778336;30;20044;-84
2022/03/11 09:21:24;;;;;;;29.55;15.05;;;;;;;;;;4759092;30;20056;-85
2022/03/11 09:24:10;;;;;;;16.88;10.38;;;;;;;;;;4773021;30;20055;-82
2022/03/11 09:26:55;;;;;;;14.05;6.97;;;;;;;;;;4772546;30;20048;-80
2022/03/11 09:29:41;;;;;;;13.27;8.20;;;;;;;;;;4772682;30;20047;-81
2022/03/11 09:32:26;;;;;;;9.45;5.53;;;;;;;;;;4780607;30;20044;-82
2022/03/11 09:35:12;;;;;;;20.90;9.40;;;;;;;;;;4772708;30;20047;-82
2022/03/11 09:37:57;;;;;;;23.55;11.70;;;;;;;;;;4771600;30;20059;-82
2022/03/11 09:40:44;;;;;;;23.50;11.10;;;;;;;;;;4777325;30;20043;-81
2022/03/11 09:43:30;;;;;;;19.00;9.73;;;;;;;;;;4772435;30;20051;-79
2022/03/11 09:46:16;;;;;;;22.25;10.50;;;;;;;;;;4772689;30;20503;-79
2022/03/11 09:49:03;;;;;;;14.95;8.40;;;;;;;;;;4772522;30;20059;-83
2022/03/11 09:51:49;;;;;;;22.15;10.52;;;;;;;;;;4771792;30;20494;-79
2022/03/11 09:54:34;;;;;;;20.60;10.95;;;;;;;;;;4772251;30;20047;-81
2022/03/11 09:57:24;;;;;;;31.70;13.30;;;;;;;;;;4777939;29;20047;-79
2022/03/11 10:00:11;;;;;;;16.33;7.63;;;;;;;;;;4781969;29;20035;-80
2022/03/11 10:03:00;;;;;;;14.60;7.78;;;;;;;;;;4774273;30;20048;-78
2022/03/11 10:05:52;;;;;;;19.58;10.23;;;;;;;;;;4771376;30;20066;-80
2022/03/11 10:08:44;;;;;;;14.13;8.00;;;;;;;;;;4777805;30;20051;-77
2022/03/11 10:11:29;;;;;;;16.58;9.57;;;;;;;;;;4771740;30;20051;-80
2022/03/11 10:14:14;;;;;;;26.30;11.25;;;;;;;;;;4772079;30;20491;-79
2022/03/11 10:17:01;;;;;;;21.98;8.88;;;;;;;;;;4772327;30;20398;-79
2022/03/11 10:19:55;;;;;;;17.73;10.55;;;;;;;;;;4770821;30;20044;-79
2022/03/11 10:22:45;;;;;;;14.23;9.23;;;;;;;;;;4785075;30;20051;-81
2022/03/11 10:25:31;;;;;;;14.73;8.18;;;;;;;;;;4771713;30;20052;-81
2022/03/11 10:28:16;;;;;;;16.55;8.60;;;;;;;;;;4771540;30;20394;-78
2022/03/11 10:31:09;;;;;;;12.88;8.65;;;;;;;;;;4771567;30;20047;-80
2022/03/11 10:34:20;;;;;;;19.20;8.45;;;;;;;;;;4772698;30;20044;-80
2022/03/11 10:37:12;;;;;;;21.55;9.05;;;;;;;;;;4771656;30;20059;-82
2022/03/11 10:40:10;;;;;;;17.23;9.52;;;;;;;;;;4772175;30;20044;-78
2022/03/11 10:43:12;;;;;;;16.63;9.25;;;;;;;;;;4772134;30;20493;-80
2022/03/11 10:46:06;;;;;;;14.57;6.85;;;;;;;;;;4772172;30;20415;-80
2022/03/11 10:48:53;;;;;;;10.07;6.15;;;;;;;;;;4771337;30;20051;-80
2022/03/11 10:51:38;;;;;;;9.00;5.60;;;;;;;;;;4771836;30;20059;-80
2022/03/11 10:54:28;;;;;;;12.68;7.85;;;;;;;;;;4771976;30;20052;-81
2022/03/11 10:57:16;;;;;;;9.95;6.95;;;;;;;;;;4771479;30;20048;-78
2022/03/11 11:00:23;;;;;;;13.18;8.05;;;;;;;;;;4772545;30;20047;-79
2022/03/11 11:03:10;;;;;;;13.57;8.27;;;;;;;;;;4773498;30;20055;-80
2022/03/11 11:05:56;;;;;;;7.35;4.65;;;;;;;;;;4771761;30;20415;-80
2022/03/11 11:08:43;;;;;;;15.93;7.82;;;;;;;;;;4771049;30;20043;-79
2022/03/11 11:11:30;;;;;;;21.58;11.43;;;;;;;;;;4774533;30;20051;-79
2022/03/11 11:14:15;;;;;;;12.88;7.07;;;;;;;;;;4771088;30;20047;-78
2022/03/11 11:17:03;;;;;;;12.80;6.80;;;;;;;;;;4770539;30;20060;-80
2022/03/11 11:19:53;;;;;;;8.43;4.95;;;;;;;;;;4776351;30;20048;-79
2022/03/11 11:22:40;;;;;;;15.25;8.65;;;;;;;;;;4770997;30;20436;-79
2022/03/11 11:25:26;;;;;;;25.08;11.43;;;;;;;;;;4771660;30;20051;-79
2022/03/11 11:28:17;;;;;;;19.52;10.30;;;;;;;;;;4770517;30;20055;-81
2022/03/11 11:31:05;;;;;;;18.73;8.70;;;;;;;;;;4762382;30;20411;-80
2022/03/11 11:33:51;;;;;;;11.80;7.20;;;;;;;;;;4770864;30;20055;-80
2022/03/11 11:36:39;;;;;;;5.38;2.92;;;;;;;;;;4770771;30;20478;-80
2022/03/11 11:39:34;;;;;;;13.55;8.55;;;;;;;;;;4770441;30;20044;-84
2022/03/11 11:42:20;;;;;;;;;;;;;;;;;;4771000;30;20040;-82
2022/03/11 11:45:13;;;;;;;;;;;;;;;;;;4775837;30;19939;-80
2022/03/11 11:47:59;;;;;;;15.25;8.85;;;;;;;;;;4770649;30;19923;-80
2022/03/11 11:50:45;;;;;;;11.52;7.72;;;;;;;;;;4770451;30;20048;-80
2022/03/11 11:53:35;;;;;;;20.23;9.60;;;;;;;;;;4770386;30;20044;-79
2022/03/11 11:56:34;;;;;;;13.93;6.95;;;;;;;;;;4770749;30;20494;-80
2022/03/11 11:59:25;;;;;;;15.32;9.10;;;;;;;;;;4770360;30;20048;-80
2022/03/11 12:02:22;;;;;;;15.15;9.00;;;;;;;;;;4777811;30;20055;-80
2022/03/11 12:05:39;;;;;;;16.25;7.18;;;;;;;;;;4770679;30;20402;-80
2022/03/11 12:08:36;;;;;;;22.63;10.77;;;;;;;;;;4771750;30;20047;-83
2022/03/11 12:11:38;;;;;;;14.25;7.43;;;;;;;;;;4777293;30;20039;-82
2022/03/11 12:14:24;;;;;;;10.35;6.82;;;;;;;;;;4780353;29;20043;-82
2022/03/11 12:17:09;;;;;;;8.52;5.43;;;;;;;;;;4794654;29;20051;-81
2022/03/11 12:19:55;;;;;;;10.38;5.13;;;;;;;;;;4776360;30;20043;-83
2022/03/11 12:22:52;;;;;;;9.05;6.00;;;;;;;;;;4775387;30;20056;-83
2022/03/11 12:25:41;;;;;;;13.20;7.40;;;;;;;;;;4775855;30;20051;-82
2022/03/11 12:28:29;;;;;;;10.48;4.75;;;;;;;;;;4779295;30;20055;-81
2022/03/11 12:31:24;;;;;;;11.48;7.60;;;;;;;;;;4780530;30;20127;-79
2022/03/11 12:34:12;;;;;;;12.50;8.10;;;;;;;;;;4773253;30;20487;-82
2022/03/11 12:36:57;;;;;;;14.95;7.43;;;;;;;;;;4774662;30;20048;-81
2022/03/11 12:39:42;;;;;;;10.77;5.45;;;;;;;;;;4772685;30;20043;-81
2022/03/11 12:42:37;;;;;;;22.85;9.52;;;;;;;;;;4773291;30;20052;-81
2022/03/11 12:45:40;;;;;;;10.93;6.10;;;;;;;;;;4779513;30;20051;-81
2022/03/11 12:48:29;;;;;;;18.10;8.60;;;;;;;;;;4774062;30;20048;-82
2022/03/11 12:51:21;;;;;;;6.78;4.28;;;;;;;;;;4784385;30;20048;-83
2022/03/11 12:54:16;;;;;;;7.80;5.43;;;;;;;;;;4774123;30;20051;-79
2022/03/11 12:57:01;;;;;;;16.48;7.75;;;;;;;;;;4775501;30;20051;-80
2022/03/11 12:59:48;;;;;;;14.50;6.93;;;;;;;;;;4775837;30;20052;-80
2022/03/11 13:02:33;;;;;;;6.43;4.00;;;;;;;;;;4779139;30;20047;-80
2022/03/11 13:05:19;;;;;;;21.05;8.90;;;;;;;;;;4782292;30;20081;-80
2022/03/11 13:08:09;;;;;;;21.38;9.68;;;;;;;;;;4776711;30;20051;-81
2022/03/11 13:10:55;;;;;;;21.80;9.50;;;;;;;;;;4779015;30;20406;-81
2022/03/11 13:13:43;;;;;;;19.98;11.45;;;;;;;;;;4776714;30;20056;-77
2022/03/11 13:16:28;;;;;;;44.45;16.08;;;;;;;;;;4773104;30;20052;-82
2022/03/11 13:19:14;;;;;;;14.73;8.43;;;;;;;;;;4784992;30;20055;-79
2022/03/11 13:22:00;;;;;;;12.13;6.40;;;;;;;;;;4779569;30;20375;-80
2022/03/11 13:24:46;;;;;;;12.98;6.72;;;;;;;;;;4776967;30;20055;-79
2022/03/11 13:27:38;;;;;;;15.82;9.63;;;;;;;;;;4774968;30;20044;-79
2022/03/11 13:30:35;;;;;;;11.70;6.78;;;;;;;;;;4772757;30;20428;-80
2022/03/11 13:33:23;;;;;;;17.75;9.05;;;;;;;;;;4772698;30;20055;-81
2022/03/11 13:36:15;;;;;;;21.95;11.48;;;;;;;;;;4772680;30;20056;-80
2022/03/11 13:39:21;;;;;;;19.33;9.95;;;;;;;;;;4773840;30;20059;-78
2022/03/11 13:42:06;;;;;;;25.85;9.05;;;;;;;;;;4784735;30;20055;-80
2022/03/11 13:45:04;;;;;;;18.65;9.32;;;;;;;;;;4775276;30;20051;-81
2022/03/11 13:48:05;;;;;;;17.23;9.15;;;;;;;;;;4781124;30;20048;-80
2022/03/11 13:51:03;;;;;;;23.08;9.57;;;;;;;;;;4772353;30;20044;-81
2022/03/11 13:53:57;;;;;;;20.27;12.50;;;;;;;;;;4773906;30;20059;-79
2022/03/11 13:56:42;;;;;;;14.07;8.13;;;;;;;;;;4777657;30;20055;-79
2022/03/11 13:59:29;;;;;;;15.45;8.52;;;;;;;;;;4773182;30;20047;-79
2022/03/11 14:02:19;;;;;;;19.42;9.05;;;;;;;;;;4773715;30;20051;-80
2022/03/11 14:05:12;;;;;;;15.32;9.32;;;;;;;;;;4778567;30;20051;-81
2022/03/11 14:08:03;;;;;;;25.67;11.75;;;;;;;;;;4772237;30;20052;-80
2022/03/11 14:10:49;;;;;;;24.77;10.35;;;;;;;;;;4773902;30;20051;-81
2022/03/11 14:13:36;;;;;;;29.38;13.07;;;;;;;;;;4771778;30;20047;-80
2022/03/11 14:16:28;;;;;;;33.80;15.70;;;;;;;;;;4772151;30;20048;-79
2022/03/11 14:19:13;;;;;;;22.27;10.70;;;;;;;;;;4781045;30;20395;-81
2022/03/11 14:21:58;;;;;;;16.38;8.75;;;;;;;;;;4773150;30;20048;-81
2022/03/11 14:24:43;;;;;;;22.65;8.82;;;;;;;;;;4772162;30;20055;-80
2022/03/11 14:27:29;;;;;;;24.50;11.55;;;;;;;;;;4772026;30;20051;-82
2022/03/11 14:30:15;;;;;;;18.83;9.32;;;;;;;;;;4774991;30;20051;-81
2022/03/11 14:33:01;;;;;;;23.08;10.98;;;;;;;;;;4795109;29;20035;-80
2022/03/11 14:35:47;;;;;;;16.98;8.27;;;;;;;;;;4777851;30;20051;-80
2022/03/11 14:38:32;;;;;;;18.40;10.55;;;;;;;;;;4773701;30;20047;-82
2022/03/11 14:41:18;;;;;;;25.25;11.20;;;;;;;;;;4773175;30;20051;-82
2022/03/11 14:44:04;;;;;;;14.30;8.32;;;;;;;;;;4772588;30;20425;-81
2022/03/11 14:46:49;;;;;;;24.17;9.85;;;;;;;;;;4774936;30;20483;-81
2022/03/11 14:49:35;;;;;;;16.45;9.98;;;;;;;;;;4773719;30;20052;-81
2022/03/11 14:52:20;;;;;;;17.58;8.23;;;;;;;;;;4772461;30;20052;-82
2022/03/11 14:55:07;;;;;;;27.73;14.60;;;;;;;;;;4774368;30;20059;-80
2022/03/11 14:57:53;;;;;;;14.45;7.85;;;;;;;;;;4772460;30;20499;-81
2022/03/11 15:00:38;;;;;;;18.17;9.10;;;;;;;;;;4771981;30;20371;-81
2022/03/11 15:03:24;;;;;;;31.45;13.45;;;;;;;;;;4774049;30;20051;-80
2022/03/11 15:06:09;;;;;;;14.38;7.60;;;;;;;;;;4777219;30;20048;-79
2022/03/11 15:08:57;;;;;;;17.13;9.40;;;;;;;;;;4780010;30;20052;-80
2022/03/11 15:11:42;;;;;;;16.05;8.07;;;;;;;;;;4780151;30;20043;-79
2022/03/11 15:14:28;;;;;;;9.30;6.00;;;;;;;;;;4775679;30;20051;-82
2022/03/11 15:17:13;;;;;;;15.23;8.02;;;;;;;;;;4777743;30;20056;-80
2022/03/11 15:20:01;;;;;;;17.98;9.38;;;;;;;;;;4779165;30;20056;-81
2022/03/11 15:22:47;;;;;;;16.10;9.13;;;;;;;;;;4774540;30;20047;-84
2022/03/11 15:25:33;;;;;;;18.25;10.52;;;;;;;;;;4774480;30;20043;-84
2022/03/11 15:28:18;;;;;;;18.83;10.02;;;;;;;;;;4772469;30;20052;-84
2022/03/11 15:31:03;;;;;;;39.38;19.65;;;;;;;;;;4771613;30;20040;-84
2022/03/11 15:33:48;;;;;;;21.02;10.63;;;;;;;;;;4775215;30;20413;-84
2022/03/11 15:36:36;;;;;;;31.20;14.15;;;;;;;;;;4774760;30;20047;-83
2022/03/11 15:39:22;;;;;;;22.40;12.25;;;;;;;;;;4774508;30;20051;-83
2022/03/11 15:42:07;;;;;;;18.77;10.30;;;;;;;;;;4759480;30;20047;-80
2022/03/11 15:44:52;;;;;;;26.75;11.18;;;;;;;;;;4770815;30;20056;-79
2022/03/11 15:47:38;;;;;;;27.42;12.07;;;;;;;;;;4771904;30;20051;-81
2022/03/11 15:50:24;;;;;;;24.95;11.85;;;;;;;;;;4772793;30;20051;-82
2022/03/11 15:53:10;;;;;;;18.63;10.60;;;;;;;;;;4775176;30;20055;-82
2022/03/11 15:55:57;;;;;;;21.52;10.82;;;;;;;;;;4775878;30;20052;-82
2022/03/11 15:58:42;;;;;;;21.80;11.02;;;;;;;;;;4778485;30;20056;-81
2022/03/11 16:01:28;;;;;;;23.33;11.48;;;;;;;;;;4765427;30;20052;-82
2022/03/11 16:04:13;;;;;;;24.70;11.32;;;;;;;;;;4776126;30;20048;-83
2022/03/11 16:06:59;;;;;;;18.35;9.95;;;;;;;;;;4774232;30;20063;-81
2022/03/11 16:09:44;;;;;;;11.88;7.22;;;;;;;;;;4781472;30;20031;-81
2022/03/11 16:12:29;;;;;;;17.27;9.95;;;;;;;;;;4778504;30;20048;-84
2022/03/11 16:15:14;;;;;;;20.80;11.73;;;;;;;;;;4783955;30;20048;-82
2022/03/11 16:17:59;;;;;;;20.08;10.77;;;;;;;;;;4775566;30;20060;-89
2022/03/11 16:20:45;;;;;;;15.07;7.78;;;;;;;;;;4774005;30;20043;-87
2022/03/11 16:23:31;;;;;;;33.38;16.55;;;;;;;;;;4778956;30;20047;-86